sensor_id;sensor_type;location;lat;lon;timestamp;pressure;altitude;pressure_sealevel;temperature;humidity
24762;BME280;12865;51.934;10.330;2023-08-30T00:00:47;98446.69;;;13.26;100.00
24762;BME280;12865;51.934;10.330;2023-08-30T00:03:33;98445.53;;;13.29;100.00
24762;BME280;12865;51.934;10.330;2023-08-30T00:06:19;98440.50;;;13.26;100.00
24762;BME280;12865;51.934;10.330;2023-08-30T00:09:05;98443.03;;;13.27;100.00
24762;BME280;12865;51.934;10.330;2023-08-30T00:11:51;98440.50;;;13.26;100.00
24762;BME280;12865;51.934;10.330;2023-08-30T00:14:36;98441.22;;;13.20;100.00
24762;BME280;12865;51.934;10.330;2023-08-30T00:17:22;98434.88;;;13.21;100.00
24762;BME280;12865;51.934;10.330;2023-08-30T00:20:08;98435.41;;;13.16;100.00
24762;BME280;12865;51.934;10.330;2023-08-30T00:22:54;98437.56;;;13.13;100.00
24762;BME280;12865;51.934;10.330;2023-08-30T00:25:40;98439.91;;;13.08;100.00
24762;BME280;12865;51.934;10.330;2023-08-30T00:28:26;98441.75;;;13.15;100.00
24762;BME280;12865;51.934;10.330;2023-08-30T00:31:12;98442.44;;;13.17;100.00
24762;BME280;12865;51.934;10.330;2023-08-30T00:33:58;98444.44;;;13.07;100.00
24762;BME280;12865;51.934;10.330;2023-08-30T00:36:43;98451.16;;;13.03;100.00
24762;BME280;12865;51.934;10.330;2023-08-30T00:39:29;98447.81;;;13.01;100.00
24762;BME280;12865;51.934;10.330;2023-08-30T00:42:15;98451.31;;;13.02;100.00
24762;BME280;12865;51.934;10.330;2023-08-30T00:45:00;98451.03;;;12.96;100.00
24762;BME280;12865;51.934;10.330;2023-08-30T00:47:46;98465.88;;;12.99;100.00
24762;BME280;12865;51.934;10.330;2023-08-30T00:50:33;98455.88;;;12.93;100.00
24762;BME280;12865;51.934;10.330;2023-08-30T00:53:19;98451.81;;;12.97;100.00
24762;BME280;12865;51.934;10.330;2023-08-30T00:56:05;98441.00;;;12.90;100.00
24762;BME280;12865;51.934;10.330;2023-08-30T00:58:51;98439.50;;;12.88;100.00
24762;BME280;12865;51.934;10.330;2023-08-30T01:04:05;98435.53;;;12.76;100.00
24762;BME280;12865;51.934;10.330;2023-08-30T01:06:51;98438.03;;;12.77;100.00
24762;BME280;12865;51.934;10.330;2023-08-30T01:09:37;98441.41;;;12.71;100.00
24762;BME280;12865;51.934;10.330;2023-08-30T01:12:48;98434.91;;;12.66;100.00
24762;BME280;12865;51.934;10.330;2023-08-30T01:15:35;98437.59;;;12.66;100.00
24762;BME280;12865;51.934;10.330;2023-08-30T01:18:26;98426.19;;;12.72;100.00
24762;BME280;12865;51.934;10.330;2023-08-30T01:21:34;98424.19;;;12.74;100.00
24762;BME280;12865;51.934;10.330;2023-08-30T01:24:32;98427.84;;;12.73;100.00
24762;BME280;12865;51.934;10.330;2023-08-30T01:27:23;98432.22;;;12.66;100.00
24762;BME280;12865;51.934;10.330;2023-08-30T01:30:10;98423.69;;;12.62;100.00
24762;BME280;12865;51.934;10.330;2023-08-30T01:32:59;98424.53;;;12.71;100.00
24762;BME280;12865;51.934;10.330;2023-08-30T01:35:45;98428.06;;;12.63;100.00
24762;BME280;12865;51.934;10.330;2023-08-30T01:38:32;98425.03;;;12.66;100.00
24762;BME280;12865;51.934;10.330;2023-08-30T01:41:19;98432.94;;;12.51;100.00
24762;BME280;12865;51.934;10.330;2023-08-30T01:44:06;98426.44;;;12.54;100.00
24762;BME280;12865;51.934;10.330;2023-08-30T01:46:53;98428.13;;;12.47;100.00
24762;BME280;12865;51.934;10.330;2023-08-30T01:49:39;98425.25;;;12.48;100.00
24762;BME280;12865;51.934;10.330;2023-08-30T01:52:26;98427.78;;;12.42;100.00
24762;BME280;12865;51.934;10.330;2023-08-30T01:55:13;98427.28;;;12.46;100.00
24762;BME280;12865;51.934;10.330;2023-08-30T01:57:59;98432.28;;;12.49;100.00
24762;BME280;12865;51.934;10.330;2023-08-30T02:00:45;98429.28;;;12.44;100.00
24762;BME280;12865;51.934;10.330;2023-08-30T02:03:31;98423.78;;;12.38;100.00
24762;BME280;12865;51.934;10.330;2023-08-30T02:06:32;98423.44;;;12.41;100.00
24762;BME280;12865;51.934;10.330;2023-08-30T02:09:24;98424.25;;;12.41;100.00
24762;BME280;12865;51.934;10.330;2023-08-30T02:12:14;98425.78;;;12.36;100.00
24762;BME280;12865;51.934;10.330;2023-08-30T02:15:01;98423.94;;;12.36;100.00
24762;BME280;12865;51.934;10.330;2023-08-30T02:17:48;98426.78;;;12.35;100.00
24762;BME280;12865;51.934;10.330;2023-08-30T02:20:35;98428.28;;;12.37;100.00
24762;BME280;12865;51.934;10.330;2023-08-30T02:23:23;98430.28;;;12.35;100.00
24762;BME280;12865;51.934;10.330;2023-08-30T02:26:08;98418.75;;;12.43;100.00
24762;BME280;12865;51.934;10.330;2023-08-30T02:28:54;98421.25;;;12.44;100.00
24762;BME280;12865;51.934;10.330;2023-08-30T02:31:39;98418.91;;;12.41;100.00
24762;BME280;12865;51.934;10.330;2023-08-30T02:34:25;98415.94;;;12.36;100.00
24762;BME280;12865;51.934;10.330;2023-08-30T02:37:11;98416.44;;;12.40;100.00
24762;BME280;12865;51.934;10.330;2023-08-30T02:39:56;98412.25;;;12.37;100.00
24762;BME280;12865;51.934;10.330;2023-08-30T02:42:42;98409.91;;;12.34;100.00
24762;BME280;12865;51.934;10.330;2023-08-30T02:45:28;98411.78;;;12.26;100.00
24762;BME280;12865;51.934;10.330;2023-08-30T02:48:14;98415.31;;;12.26;100.00
24762;BME280;12865;51.934;10.330;2023-08-30T02:51:00;98409.59;;;12.29;100.00
24762;BME280;12865;51.934;10.330;2023-08-30T02:53:46;98415.63;;;12.23;100.00
24762;BME280;12865;51.934;10.330;2023-08-30T02:56:31;98416.63;;;12.22;100.00
24762;BME280;12865;51.934;10.330;2023-08-30T02:59:17;98416.47;;;12.24;100.00
24762;BME280;12865;51.934;10.330;2023-08-30T03:02:03;98412.63;;;12.26;100.00
24762;BME280;12865;51.934;10.330;2023-08-30T03:04:48;98420.13;;;12.31;100.00
24762;BME280;12865;51.934;10.330;2023-08-30T03:07:34;98412.59;;;12.34;100.00
24762;BME280;12865;51.934;10.330;2023-08-30T03:10:20;98410.28;;;12.31;100.00
24762;BME280;12865;51.934;10.330;2023-08-30T03:13:05;98418.59;;;12.36;100.00
24762;BME280;12865;51.934;10.330;2023-08-30T03:15:51;98408.44;;;12.32;100.00
24762;BME280;12865;51.934;10.330;2023-08-30T03:18:37;98398.22;;;12.35;100.00
24762;BME280;12865;51.934;10.330;2023-08-30T03:21:23;98397.22;;;12.36;100.00
24762;BME280;12865;51.934;10.330;2023-08-30T03:24:09;98397.22;;;12.36;100.00
24762;BME280;12865;51.934;10.330;2023-08-30T03:26:54;98396.53;;;12.42;100.00
24762;BME280;12865;51.934;10.330;2023-08-30T03:29:40;98395.91;;;12.40;100.00
24762;BME280;12865;51.934;10.330;2023-08-30T03:32:26;98393.84;;;12.42;100.00
24762;BME280;12865;51.934;10.330;2023-08-30T03:35:13;98396.69;;;12.49;100.00
24762;BME280;12865;51.934;10.330;2023-08-30T03:38:00;98391.53;;;12.47;100.00
24762;BME280;12865;51.934;10.330;2023-08-30T03:40:46;98388.31;;;12.52;100.00
24762;BME280;12865;51.934;10.330;2023-08-30T03:43:32;98385.28;;;12.55;100.00
24762;BME280;12865;51.934;10.330;2023-08-30T03:46:18;98382.44;;;12.56;100.00
24762;BME280;12865;51.934;10.330;2023-08-30T03:49:04;98375.78;;;12.61;100.00
24762;BME280;12865;51.934;10.330;2023-08-30T03:51:49;98382.75;;;12.62;100.00
24762;BME280;12865;51.934;10.330;2023-08-30T03:54:35;98382.41;;;12.73;100.00
24762;BME280;12865;51.934;10.330;2023-08-30T03:57:21;98379.63;;;12.58;100.00
24762;BME280;12865;51.934;10.330;2023-08-30T04:00:07;98376.44;;;12.54;100.00
24762;BME280;12865;51.934;10.330;2023-08-30T04:02:53;98363.03;;;12.63;100.00
24762;BME280;12865;51.934;10.330;2023-08-30T04:05:38;98366.28;;;12.50;100.00
24762;BME280;12865;51.934;10.330;2023-08-30T04:08:24;98365.81;;;12.46;100.00
24762;BME280;12865;51.934;10.330;2023-08-30T04:11:10;98365.97;;;12.45;100.00
24762;BME280;12865;51.934;10.330;2023-08-30T04:13:55;98360.63;;;12.45;100.00
24762;BME280;12865;51.934;10.330;2023-08-30T04:16:41;98367.09;;;12.50;100.00
24762;BME280;12865;51.934;10.330;2023-08-30T04:19:27;98364.13;;;12.45;100.00
24762;BME280;12865;51.934;10.330;2023-08-30T04:22:12;98357.91;;;12.53;100.00
24762;BME280;12865;51.934;10.330;2023-08-30T04:24:58;98361.28;;;12.47;100.00
24762;BME280;12865;51.934;10.330;2023-08-30T04:27:44;98360.44;;;12.46;100.00
24762;BME280;12865;51.934;10.330;2023-08-30T04:30:29;98361.09;;;12.48;100.00
24762;BME280;12865;51.934;10.330;2023-08-30T04:33:15;98364.97;;;12.46;100.00
24762;BME280;12865;51.934;10.330;2023-08-30T04:36:01;98364.94;;;12.54;100.00
24762;BME280;12865;51.934;10.330;2023-08-30T04:38:49;98360.63;;;12.45;100.00
24762;BME280;12865;51.934;10.330;2023-08-30T04:41:35;98361.06;;;12.56;100.00
24762;BME280;12865;51.934;10.330;2023-08-30T04:44:20;98358.94;;;12.44;100.00
24762;BME280;12865;51.934;10.330;2023-08-30T04:47:09;98363.97;;;12.47;100.00
24762;BME280;12865;51.934;10.330;2023-08-30T04:49:55;98368.28;;;12.48;100.00
24762;BME280;12865;51.934;10.330;2023-08-30T04:52:41;98371.84;;;12.40;100.00
24762;BME280;12865;51.934;10.330;2023-08-30T04:55:31;98367.50;;;12.39;100.00
24762;BME280;12865;51.934;10.330;2023-08-30T04:58:16;98363.16;;;12.38;100.00
24762;BME280;12865;51.934;10.330;2023-08-30T05:01:02;98361.47;;;12.37;100.00
24762;BME280;12865;51.934;10.330;2023-08-30T05:03:48;98354.91;;;12.48;100.00
24762;BME280;12865;51.934;10.330;2023-08-30T05:06:33;98355.72;;;12.56;100.00
24762;BME280;12865;51.934;10.330;2023-08-30T05:09:19;98349.50;;;12.64;100.00
24762;BME280;12865;51.934;10.330;2023-08-30T05:12:08;98344.78;;;12.74;100.00
24762;BME280;12865;51.934;10.330;2023-08-30T05:14:53;98341.56;;;12.79;100.00
24762;BME280;12865;51.934;10.330;2023-08-30T05:17:39;98343.25;;;12.80;100.00
24762;BME280;12865;51.934;10.330;2023-08-30T05:20:25;98345.38;;;12.84;100.00
24762;BME280;12865;51.934;10.330;2023-08-30T05:23:10;98347.56;;;12.89;100.00
24762;BME280;12865;51.934;10.330;2023-08-30T05:25:56;98342.63;;;13.01;100.00
24762;BME280;12865;51.934;10.330;2023-08-30T05:28:42;98352.78;;;13.13;100.00
24762;BME280;12865;51.934;10.330;2023-08-30T05:31:27;98353.06;;;13.18;100.00
24762;BME280;12865;51.934;10.330;2023-08-30T05:34:13;98351.66;;;13.30;100.00
24762;BME280;12865;51.934;10.330;2023-08-30T05:36:59;98352.00;;;13.50;100.00
24762;BME280;12865;51.934;10.330;2023-08-30T05:39:44;98347.22;;;13.60;100.00
24762;BME280;12865;51.934;10.330;2023-08-30T05:42:30;98355.69;;;13.72;100.00
24762;BME280;12865;51.934;10.330;2023-08-30T05:45:16;98359.88;;;13.89;100.00
24762;BME280;12865;51.934;10.330;2023-08-30T05:48:02;98358.72;;;14.06;100.00
24762;BME280;12865;51.934;10.330;2023-08-30T05:50:48;98350.59;;;14.29;100.00
24762;BME280;12865;51.934;10.330;2023-08-30T05:53:34;98345.06;;;14.45;100.00
24762;BME280;12865;51.934;10.330;2023-08-30T05:56:20;98344.69;;;14.63;100.00
24762;BME280;12865;51.934;10.330;2023-08-30T05:59:05;98345.50;;;14.78;100.00
24762;BME280;12865;51.934;10.330;2023-08-30T06:01:51;98347.97;;;14.94;100.00
24762;BME280;12865;51.934;10.330;2023-08-30T06:04:37;98345.41;;;15.08;100.00
24762;BME280;12865;51.934;10.330;2023-08-30T06:07:22;98344.81;;;15.27;100.00
24762;BME280;12865;51.934;10.330;2023-08-30T06:10:09;98343.34;;;15.46;100.00
24762;BME280;12865;51.934;10.330;2023-08-30T06:12:54;98342.84;;;15.57;100.00
24762;BME280;12865;51.934;10.330;2023-08-30T06:15:40;98336.31;;;15.66;100.00
24762;BME280;12865;51.934;10.330;2023-08-30T06:18:30;98336.78;;;15.69;100.00
24762;BME280;12865;51.934;10.330;2023-08-30T06:21:16;98335.31;;;15.67;100.00
24762;BME280;12865;51.934;10.330;2023-08-30T06:24:01;98331.41;;;15.69;100.00
24762;BME280;12865;51.934;10.330;2023-08-30T06:26:47;98334.44;;;15.88;100.00
24762;BME280;12865;51.934;10.330;2023-08-30T06:29:33;98332.50;;;16.03;100.00
24762;BME280;12865;51.934;10.330;2023-08-30T06:32:18;98327.34;;;16.08;100.00
24762;BME280;12865;51.934;10.330;2023-08-30T06:35:04;98331.50;;;16.10;100.00
24762;BME280;12865;51.934;10.330;2023-08-30T06:37:50;98325.34;;;16.17;100.00
24762;BME280;12865;51.934;10.330;2023-08-30T06:40:36;98327.81;;;16.12;100.00
24762;BME280;12865;51.934;10.330;2023-08-30T06:43:21;98329.25;;;16.14;100.00
24762;BME280;12865;51.934;10.330;2023-08-30T06:46:07;98324.28;;;16.11;100.00
24762;BME280;12865;51.934;10.330;2023-08-30T06:48:53;98327.56;;;16.13;100.00
24762;BME280;12865;51.934;10.330;2023-08-30T06:51:38;98329.69;;;16.18;100.00
24762;BME280;12865;51.934;10.330;2023-08-30T06:54:24;98329.25;;;16.14;100.00
24762;BME280;12865;51.934;10.330;2023-08-30T06:57:10;98331.97;;;16.21;100.00
24762;BME280;12865;51.934;10.330;2023-08-30T06:59:55;98325.81;;;16.27;100.00
24762;BME280;12865;51.934;10.330;2023-08-30T07:02:41;98330.03;;;16.42;100.00
24762;BME280;12865;51.934;10.330;2023-08-30T07:05:30;98319.16;;;16.57;100.00
24762;BME280;12865;51.934;10.330;2023-08-30T07:08:16;98327.28;;;16.64;100.00
24762;BME280;12865;51.934;10.330;2023-08-30T07:11:01;98323.78;;;16.70;100.00
24762;BME280;12865;51.934;10.330;2023-08-30T07:13:47;98323.41;;;16.79;100.00
24762;BME280;12865;51.934;10.330;2023-08-30T07:16:33;98316.84;;;16.95;100.00
24762;BME280;12865;51.934;10.330;2023-08-30T07:19:19;98324.13;;;17.08;100.00
24762;BME280;12865;51.934;10.330;2023-08-30T07:22:04;98328.53;;;17.28;100.00
24762;BME280;12865;51.934;10.330;2023-08-30T07:24:50;98321.09;;;17.44;99.74
24762;BME280;12865;51.934;10.330;2023-08-30T07:27:36;98315.91;;;17.49;97.71
24762;BME280;12865;51.934;10.330;2023-08-30T07:30:22;98317.59;;;17.50;97.45
24762;BME280;12865;51.934;10.330;2023-08-30T07:33:08;98321.94;;;17.57;94.28
24762;BME280;12865;51.934;10.330;2023-08-30T07:35:53;98317.44;;;17.71;95.04
24762;BME280;12865;51.934;10.330;2023-08-30T07:38:39;98318.66;;;17.75;90.88
24762;BME280;12865;51.934;10.330;2023-08-30T07:41:27;98321.16;;;17.70;89.85
24762;BME280;12865;51.934;10.330;2023-08-30T07:44:13;98314.09;;;17.76;94.37
24762;BME280;12865;51.934;10.330;2023-08-30T07:46:58;98306.84;;;17.70;88.92
24762;BME280;12865;51.934;10.330;2023-08-30T07:49:44;98311.59;;;17.81;89.94
24762;BME280;12865;51.934;10.330;2023-08-30T07:52:30;98308.69;;;17.95;88.96
24762;BME280;12865;51.934;10.330;2023-08-30T07:55:16;98310.97;;;18.12;87.57
24762;BME280;12865;51.934;10.330;2023-08-30T07:58:02;98308.69;;;18.15;81.70
24762;BME280;12865;51.934;10.330;2023-08-30T08:00:54;98307.78;;;18.41;82.46
24762;BME280;12865;51.934;10.330;2023-08-30T08:03:40;98313.13;;;18.67;83.50
24762;BME280;12865;51.934;10.330;2023-08-30T08:06:28;98314.25;;;18.98;82.91
24762;BME280;12865;51.934;10.330;2023-08-30T08:09:14;98316.38;;;19.27;82.02
24762;BME280;12865;51.934;10.330;2023-08-30T08:12:00;98315.66;;;19.38;77.98
24762;BME280;12865;51.934;10.330;2023-08-30T08:14:46;98305.13;;;19.62;78.09
24762;BME280;12865;51.934;10.330;2023-08-30T08:17:32;98295.81;;;19.82;77.77
24762;BME280;12865;51.934;10.330;2023-08-30T08:20:17;98301.03;;;19.77;72.75
24762;BME280;12865;51.934;10.330;2023-08-30T08:23:03;98300.22;;;20.02;73.04
24762;BME280;12865;51.934;10.330;2023-08-30T08:25:49;98302.69;;;20.03;71.42
24762;BME280;12865;51.934;10.330;2023-08-30T08:28:35;98298.56;;;20.19;70.87
24762;BME280;12865;51.934;10.330;2023-08-30T08:31:20;98296.56;;;20.32;72.62
24762;BME280;12865;51.934;10.330;2023-08-30T08:34:08;98286.50;;;20.39;67.39
24762;BME280;12865;51.934;10.330;2023-08-30T08:36:55;98283.22;;;20.37;66.36
24762;BME280;12865;51.934;10.330;2023-08-30T08:39:41;98274.81;;;20.46;65.16
24762;BME280;12865;51.934;10.330;2023-08-30T08:42:28;98280.63;;;20.61;65.95
24762;BME280;12865;51.934;10.330;2023-08-30T08:45:14;98281.91;;;20.76;66.02
24762;BME280;12865;51.934;10.330;2023-08-30T08:48:05;98287.25;;;20.83;64.99
24762;BME280;12865;51.934;10.330;2023-08-30T08:50:51;98282.25;;;21.17;65.07
24762;BME280;12865;51.934;10.330;2023-08-30T08:53:38;98281.44;;;21.16;65.53
24762;BME280;12865;51.934;10.330;2023-08-30T08:56:23;98292.97;;;20.93;61.80
24762;BME280;12865;51.934;10.330;2023-08-30T08:59:09;98292.94;;;20.20;64.01
24762;BME280;12865;51.934;10.330;2023-08-30T09:01:55;98293.06;;;20.50;66.31
24762;BME280;12865;51.934;10.330;2023-08-30T09:04:41;98286.00;;;20.49;66.19
24762;BME280;12865;51.934;10.330;2023-08-30T09:07:27;98288.28;;;20.09;68.29
24762;BME280;12865;51.934;10.330;2023-08-30T09:10:15;98293.47;;;20.11;69.05
24762;BME280;12865;51.934;10.330;2023-08-30T09:13:01;98288.75;;;20.24;66.38
24762;BME280;12865;51.934;10.330;2023-08-30T09:15:47;98289.00;;;20.59;68.33
24762;BME280;12865;51.934;10.330;2023-08-30T09:18:32;98297.06;;;20.66;66.04
24762;BME280;12865;51.934;10.330;2023-08-30T09:21:18;98296.22;;;20.65;64.78
24762;BME280;12865;51.934;10.330;2023-08-30T09:24:05;98295.25;;;20.60;65.73
24762;BME280;12865;51.934;10.330;2023-08-30T09:26:53;98297.50;;;20.81;66.91
24762;BME280;12865;51.934;10.330;2023-08-30T09:29:39;98301.53;;;20.90;67.93
24762;BME280;12865;51.934;10.330;2023-08-30T09:32:24;98296.28;;;20.95;66.41
24762;BME280;12865;51.934;10.330;2023-08-30T09:35:10;98297.63;;;20.86;64.46
24762;BME280;12865;51.934;10.330;2023-08-30T09:37:56;98295.84;;;20.80;65.09
24762;BME280;12865;51.934;10.330;2023-08-30T09:40:41;98291.00;;;20.82;66.34
24762;BME280;12865;51.934;10.330;2023-08-30T09:43:27;98293.56;;;20.77;64.30
24762;BME280;12865;51.934;10.330;2023-08-30T09:46:13;98297.50;;;20.81;64.28
24762;BME280;12865;51.934;10.330;2023-08-30T09:48:58;98295.38;;;20.83;67.13
24762;BME280;12865;51.934;10.330;2023-08-30T09:51:46;98287.31;;;20.95;66.36
24762;BME280;12865;51.934;10.330;2023-08-30T09:54:32;98282.56;;;20.90;64.63
24762;BME280;12865;51.934;10.330;2023-08-30T09:57:20;98286.50;;;20.94;66.20
24762;BME280;12865;51.934;10.330;2023-08-30T10:00:07;98292.25;;;20.98;68.93
24762;BME280;12865;51.934;10.330;2023-08-30T10:02:54;98281.09;;;21.06;67.28
24762;BME280;12865;51.934;10.330;2023-08-30T10:05:41;98274.16;;;21.10;68.27
24762;BME280;12865;51.934;10.330;2023-08-30T10:08:31;98274.25;;;21.22;69.40
24762;BME280;12865;51.934;10.330;2023-08-30T10:11:18;98271.09;;;21.06;66.32
24762;BME280;12865;51.934;10.330;2023-08-30T10:14:06;98271.16;;;21.18;69.05
24762;BME280;12865;51.934;10.330;2023-08-30T10:17:01;98273.03;;;21.17;68.54
24762;BME280;12865;51.934;10.330;2023-08-30T10:19:49;98266.41;;;20.84;67.78
24762;BME280;12865;51.934;10.330;2023-08-30T10:22:37;98268.13;;;20.78;69.08
24762;BME280;12865;51.934;10.330;2023-08-30T10:25:26;98267.00;;;20.86;70.76
24762;BME280;12865;51.934;10.330;2023-08-30T10:28:15;98270.03;;;21.07;71.66
24762;BME280;12865;51.934;10.330;2023-08-30T10:31:01;98266.13;;;21.03;69.50
24762;BME280;12865;51.934;10.330;2023-08-30T10:33:53;98266.81;;;20.99;69.33
24762;BME280;12865;51.934;10.330;2023-08-30T10:36:39;98263.19;;;21.23;69.66
24762;BME280;12865;51.934;10.330;2023-08-30T10:39:33;98265.06;;;21.04;69.39
24762;BME280;12865;51.934;10.330;2023-08-30T10:42:22;98260.69;;;21.22;73.65
24762;BME280;12865;51.934;10.330;2023-08-30T10:45:09;98260.28;;;21.60;70.84
24762;BME280;12865;51.934;10.330;2023-08-30T10:47:56;98254.91;;;21.83;69.94
24762;BME280;12865;51.934;10.330;2023-08-30T10:50:42;98251.75;;;21.98;68.69
24762;BME280;12865;51.934;10.330;2023-08-30T10:53:29;98255.97;;;22.28;67.15
24762;BME280;12865;51.934;10.330;2023-08-30T10:56:15;98259.13;;;22.49;63.99
24762;BME280;12865;51.934;10.330;2023-08-30T10:59:02;98260.97;;;22.60;62.59
24762;BME280;12865;51.934;10.330;2023-08-30T11:01:49;98261.16;;;22.42;65.05
24762;BME280;12865;51.934;10.330;2023-08-30T11:04:39;98252.22;;;22.58;61.81
24762;BME280;12865;51.934;10.330;2023-08-30T11:07:26;98252.94;;;22.77;62.15
24762;BME280;12865;51.934;10.330;2023-08-30T11:10:13;98254.00;;;22.76;63.31
24762;BME280;12865;51.934;10.330;2023-08-30T11:13:01;98245.13;;;22.68;60.17
24762;BME280;12865;51.934;10.330;2023-08-30T11:15:46;98243.38;;;22.62;59.27
24762;BME280;12865;51.934;10.330;2023-08-30T11:18:39;98237.84;;;22.46;61.32
24762;BME280;12865;51.934;10.330;2023-08-30T11:21:25;98245.69;;;22.82;64.21
24762;BME280;12865;51.934;10.330;2023-08-30T11:24:11;98242.38;;;22.80;60.12
24762;BME280;12865;51.934;10.330;2023-08-30T11:26:57;98234.63;;;22.60;63.64
24762;BME280;12865;51.934;10.330;2023-08-30T11:29:43;98226.84;;;22.92;63.40
24762;BME280;12865;51.934;10.330;2023-08-30T11:32:32;98222.53;;;23.08;60.43
24762;BME280;12865;51.934;10.330;2023-08-30T11:35:21;98227.00;;;23.14;60.99
24762;BME280;12865;51.934;10.330;2023-08-30T11:38:07;98223.59;;;23.07;58.72
24762;BME280;12865;51.934;10.330;2023-08-30T11:40:53;98225.28;;;23.25;54.98
24762;BME280;12865;51.934;10.330;2023-08-30T11:43:39;98225.06;;;23.26;54.76
24762;BME280;12865;51.934;10.330;2023-08-30T11:46:25;98222.47;;;22.63;55.54
24762;BME280;12865;51.934;10.330;2023-08-30T11:49:11;98223.03;;;22.65;58.27
24762;BME280;12865;51.934;10.330;2023-08-30T11:51:57;98221.34;;;22.47;56.99
24762;BME280;12865;51.934;10.330;2023-08-30T11:54:44;98215.50;;;22.04;60.75
24762;BME280;12865;51.934;10.330;2023-08-30T11:57:33;98220.22;;;22.08;62.50
24762;BME280;12865;51.934;10.330;2023-08-30T12:00:20;98218.06;;;21.87;62.43
24762;BME280;12865;51.934;10.330;2023-08-30T12:03:06;98216.66;;;21.73;64.80
24762;BME280;12865;51.934;10.330;2023-08-30T12:05:52;98214.06;;;21.66;65.47
24762;BME280;12865;51.934;10.330;2023-08-30T12:08:38;98208.41;;;21.56;66.68
24762;BME280;12865;51.934;10.330;2023-08-30T12:11:23;98201.78;;;21.52;67.93
24762;BME280;12865;51.934;10.330;2023-08-30T12:14:09;98209.31;;;21.38;69.59
24762;BME280;12865;51.934;10.330;2023-08-30T12:16:59;98202.56;;;21.17;72.10
24762;BME280;12865;51.934;10.330;2023-08-30T12:19:45;98207.31;;;21.34;71.83
24762;BME280;12865;51.934;10.330;2023-08-30T12:22:40;98194.25;;;21.42;74.14
24762;BME280;12865;51.934;10.330;2023-08-30T12:25:26;98192.72;;;21.81;71.87
24762;BME280;12865;51.934;10.330;2023-08-30T12:28:12;98195.28;;;22.23;69.77
24762;BME280;12865;51.934;10.330;2023-08-30T12:30:58;98194.50;;;22.51;64.69
24762;BME280;12865;51.934;10.330;2023-08-30T12:33:44;98179.72;;;22.58;66.50
24762;BME280;12865;51.934;10.330;2023-08-30T12:36:29;98178.16;;;22.34;65.91
24762;BME280;12865;51.934;10.330;2023-08-30T12:39:15;98180.00;;;22.45;65.04
24762;BME280;12865;51.934;10.330;2023-08-30T12:42:02;98173.59;;;22.51;62.81
24762;BME280;12865;51.934;10.330;2023-08-30T12:44:47;98172.63;;;22.57;63.07
24762;BME280;12865;51.934;10.330;2023-08-30T12:47:33;98170.78;;;22.46;66.69
24762;BME280;12865;51.934;10.330;2023-08-30T12:50:19;98168.13;;;22.35;62.96
24762;BME280;12865;51.934;10.330;2023-08-30T12:53:05;98159.78;;;22.53;63.82
24762;BME280;12865;51.934;10.330;2023-08-30T12:55:51;98158.56;;;22.60;64.63
24762;BME280;12865;51.934;10.330;2023-08-30T12:58:37;98160.69;;;22.58;62.90
24762;BME280;12865;51.934;10.330;2023-08-30T13:01:22;98157.09;;;22.41;61.61
24762;BME280;12865;51.934;10.330;2023-08-30T13:04:09;98147.69;;;22.32;65.05
24762;BME280;12865;51.934;10.330;2023-08-30T13:06:55;98146.03;;;22.31;64.38
24762;BME280;12865;51.934;10.330;2023-08-30T13:09:41;98142.69;;;22.41;65.15
24762;BME280;12865;51.934;10.330;2023-08-30T13:12:27;98142.88;;;22.51;65.82
24762;BME280;12865;51.934;10.330;2023-08-30T13:15:12;98148.75;;;22.59;64.70
24762;BME280;12865;51.934;10.330;2023-08-30T13:17:58;98141.88;;;22.40;65.12
24762;BME280;12865;51.934;10.330;2023-08-30T13:20:44;98140.53;;;22.54;62.99
24762;BME280;12865;51.934;10.330;2023-08-30T13:23:30;98140.28;;;22.56;62.63
24762;BME280;12865;51.934;10.330;2023-08-30T13:26:16;98134.94;;;22.32;63.52
24762;BME280;12865;51.934;10.330;2023-08-30T13:29:01;98134.38;;;22.19;63.04
24762;BME280;12865;51.934;10.330;2023-08-30T13:31:47;98121.59;;;22.31;65.22
24762;BME280;12865;51.934;10.330;2023-08-30T13:34:33;98128.22;;;22.35;62.82
24762;BME280;12865;51.934;10.330;2023-08-30T13:37:19;98124.31;;;22.31;60.52
24762;BME280;12865;51.934;10.330;2023-08-30T13:40:05;98114.50;;;22.58;62.11
24762;BME280;12865;51.934;10.330;2023-08-30T13:42:51;98120.25;;;22.74;60.85
24762;BME280;12865;51.934;10.330;2023-08-30T13:45:37;98113.88;;;22.96;59.70
24762;BME280;12865;51.934;10.330;2023-08-30T13:48:22;98105.84;;;23.06;62.04
24762;BME280;12865;51.934;10.330;2023-08-30T13:51:08;98109.16;;;23.25;60.00
24762;BME280;12865;51.934;10.330;2023-08-30T13:53:53;98105.44;;;22.81;56.56
24762;BME280;12865;51.934;10.330;2023-08-30T13:56:39;98105.78;;;22.85;61.13
24762;BME280;12865;51.934;10.330;2023-08-30T13:59:25;98090.38;;;23.07;59.80
24762;BME280;12865;51.934;10.330;2023-08-30T14:02:11;98091.59;;;23.33;59.50
24762;BME280;12865;51.934;10.330;2023-08-30T14:04:56;98083.88;;;23.08;61.07
24762;BME280;12865;51.934;10.330;2023-08-30T14:07:42;98088.31;;;23.14;57.83
24762;BME280;12865;51.934;10.330;2023-08-30T14:10:27;98092.91;;;23.14;57.25
24762;BME280;12865;51.934;10.330;2023-08-30T14:13:13;98095.56;;;22.75;58.27
24762;BME280;12865;51.934;10.330;2023-08-30T14:16:00;98088.34;;;22.97;59.78
24762;BME280;12865;51.934;10.330;2023-08-30T14:18:46;98099.94;;;23.09;57.18
24762;BME280;12865;51.934;10.330;2023-08-30T14:21:32;98101.34;;;23.12;56.21
24762;BME280;12865;51.934;10.330;2023-08-30T14:24:18;98097.13;;;23.21;57.99
24762;BME280;12865;51.934;10.330;2023-08-30T14:27:03;98089.00;;;23.04;58.67